sensor_id;sensor_type;location;lat;lon;timestamp;temperature;humidity
68912;SHT31;55953;51.650;-0.522;2022-11-23T00:01:32;4.65;88.60
68912;SHT31;55953;51.650;-0.522;2022-11-23T00:04:03;4.71;88.93
68912;SHT31;55953;51.650;-0.522;2022-11-23T00:06:34;4.82;89.05
68912;SHT31;55953;51.650;-0.522;2022-11-23T00:09:02;4.95;89.16
68912;SHT31;55953;51.650;-0.522;2022-11-23T00:11:32;5.02;89.03
68912;SHT31;55953;51.650;-0.522;2022-11-23T00:14:02;5.06;89.02
68912;SHT31;55953;51.650;-0.522;2022-11-23T00:16:30;5.11;89.13
68912;SHT31;55953;51.650;-0.522;2022-11-23T00:18:59;5.16;89.12
68912;SHT31;55953;51.650;-0.522;2022-11-23T00:21:29;5.21;89.30
68912;SHT31;55953;51.650;-0.522;2022-11-23T00:23:59;5.25;89.23
68912;SHT31;55953;51.650;-0.522;2022-11-23T00:26:27;5.22;89.35
68912;SHT31;55953;51.650;-0.522;2022-11-23T00:28:55;5.24;89.57
68912;SHT31;55953;51.650;-0.522;2022-11-23T00:31:25;5.29;89.55
68912;SHT31;55953;51.650;-0.522;2022-11-23T00:33:54;5.30;89.40
68912;SHT31;55953;51.650;-0.522;2022-11-23T00:36:23;5.31;89.37
68912;SHT31;55953;51.650;-0.522;2022-11-23T00:38:53;5.32;89.34
68912;SHT31;55953;51.650;-0.522;2022-11-23T00:41:23;5.36;89.34
68912;SHT31;55953;51.650;-0.522;2022-11-23T00:43:53;5.46;89.22
68912;SHT31;55953;51.650;-0.522;2022-11-23T00:46:22;5.53;88.89
68912;SHT31;55953;51.650;-0.522;2022-11-23T00:48:53;5.53;88.54
68912;SHT31;55953;51.650;-0.522;2022-11-23T00:51:26;5.53;88.61
68912;SHT31;55953;51.650;-0.522;2022-11-23T00:53:57;5.56;88.58
68912;SHT31;55953;51.650;-0.522;2022-11-23T00:56:26;5.60;88.40
68912;SHT31;55953;51.650;-0.522;2022-11-23T00:58:56;5.57;88.17
68912;SHT31;55953;51.650;-0.522;2022-11-23T01:01:30;5.57;88.34
68912;SHT31;55953;51.650;-0.522;2022-11-23T01:04:01;5.56;88.22
68912;SHT31;55953;51.650;-0.522;2022-11-23T01:06:33;5.50;88.17
68912;SHT31;55953;51.650;-0.522;2022-11-23T01:09:05;5.43;88.24
68912;SHT31;55953;51.650;-0.522;2022-11-23T01:11:52;5.40;88.42
68912;SHT31;55953;51.650;-0.522;2022-11-23T01:14:23;5.39;88.48
68912;SHT31;55953;51.650;-0.522;2022-11-23T01:16:51;5.36;88.55
68912;SHT31;55953;51.650;-0.522;2022-11-23T01:19:19;5.36;88.46
68912;SHT31;55953;51.650;-0.522;2022-11-23T01:21:48;5.32;88.41
68912;SHT31;55953;51.650;-0.522;2022-11-23T01:24:18;5.29;88.50
68912;SHT31;55953;51.650;-0.522;2022-11-23T01:26:52;5.25;88.37
68912;SHT31;55953;51.650;-0.522;2022-11-23T01:29:22;5.19;88.37
68912;SHT31;55953;51.650;-0.522;2022-11-23T01:31:50;5.17;88.61
68912;SHT31;55953;51.650;-0.522;2022-11-23T01:34:18;5.22;88.56
68912;SHT31;55953;51.650;-0.522;2022-11-23T01:36:46;5.15;88.15
68912;SHT31;55953;51.650;-0.522;2022-11-23T01:39:14;5.10;88.10
68912;SHT31;55953;51.650;-0.522;2022-11-23T01:41:42;5.13;88.16
68912;SHT31;55953;51.650;-0.522;2022-11-23T01:46:58;5.09;87.35
68912;SHT31;55953;51.650;-0.522;2022-11-23T01:49:34;5.00;87.42
68912;SHT31;55953;51.650;-0.522;2022-11-23T01:52:10;4.92;87.41
68912;SHT31;55953;51.650;-0.522;2022-11-23T01:54:48;4.79;87.55
68912;SHT31;55953;51.650;-0.522;2022-11-23T02:00:00;4.62;88.33
68912;SHT31;55953;51.650;-0.522;2022-11-23T02:02:40;4.65;88.64
68912;SHT31;55953;51.650;-0.522;2022-11-23T02:05:17;4.57;88.31
68912;SHT31;55953;51.650;-0.522;2022-11-23T02:07:49;4.45;88.30
68912;SHT31;55953;51.650;-0.522;2022-11-23T02:10:18;4.31;88.24
68912;SHT31;55953;51.650;-0.522;2022-11-23T02:12:49;4.14;88.32
68912;SHT31;55953;51.650;-0.522;2022-11-23T02:15:17;4.04;88.45
68912;SHT31;55953;51.650;-0.522;2022-11-23T02:17:44;3.98;88.54
68912;SHT31;55953;51.650;-0.522;2022-11-23T02:20:15;3.95;88.39
68912;SHT31;55953;51.650;-0.522;2022-11-23T02:25:38;3.78;88.39
68912;SHT31;55953;51.650;-0.522;2022-11-23T02:28:34;3.73;88.33
68912;SHT31;55953;51.650;-0.522;2022-11-23T02:31:07;3.70;88.24
68912;SHT31;55953;51.650;-0.522;2022-11-23T02:33:36;3.69;88.27
68912;SHT31;55953;51.650;-0.522;2022-11-23T02:38:56;3.68;88.17
68912;SHT31;55953;51.650;-0.522;2022-11-23T02:41:41;3.63;88.29
68912;SHT31;55953;51.650;-0.522;2022-11-23T02:44:24;3.72;88.43
68912;SHT31;55953;51.650;-0.522;2022-11-23T02:47:13;3.84;88.33
68912;SHT31;55953;51.650;-0.522;2022-11-23T02:49:44;3.95;87.98
68912;SHT31;55953;51.650;-0.522;2022-11-23T02:52:14;3.84;87.44
68912;SHT31;55953;51.650;-0.522;2022-11-23T02:54:43;3.68;87.59
68912;SHT31;55953;51.650;-0.522;2022-11-23T02:57:12;3.59;87.82
68912;SHT31;55953;51.650;-0.522;2022-11-23T02:59:43;3.54;88.02
68912;SHT31;55953;51.650;-0.522;2022-11-23T03:02:11;3.55;88.07
68912;SHT31;55953;51.650;-0.522;2022-11-23T03:04:40;3.64;88.26
68912;SHT31;55953;51.650;-0.522;2022-11-23T03:07:07;3.66;87.90
68912;SHT31;55953;51.650;-0.522;2022-11-23T03:09:35;3.57;87.71
68912;SHT31;55953;51.650;-0.522;2022-11-23T03:12:03;3.51;87.82
68912;SHT31;55953;51.650;-0.522;2022-11-23T03:14:31;3.45;87.94
68912;SHT31;55953;51.650;-0.522;2022-11-23T03:16:59;3.41;88.07
68912;SHT31;55953;51.650;-0.522;2022-11-23T03:19:29;3.36;88.11
68912;SHT31;55953;51.650;-0.522;2022-11-23T03:21:58;3.36;88.26
68912;SHT31;55953;51.650;-0.522;2022-11-23T03:24:29;3.37;88.46
68912;SHT31;55953;51.650;-0.522;2022-11-23T03:26:58;3.40;88.53
68912;SHT31;55953;51.650;-0.522;2022-11-23T03:29:26;3.43;88.66
68912;SHT31;55953;51.650;-0.522;2022-11-23T03:31:54;3.45;88.53
68912;SHT31;55953;51.650;-0.522;2022-11-23T03:34:23;3.42;88.47
68912;SHT31;55953;51.650;-0.522;2022-11-23T03:36:51;3.36;88.51
68912;SHT31;55953;51.650;-0.522;2022-11-23T03:39:19;3.40;88.74
68912;SHT31;55953;51.650;-0.522;2022-11-23T03:41:50;3.45;88.73
68912;SHT31;55953;51.650;-0.522;2022-11-23T03:44:19;3.46;88.66
68912;SHT31;55953;51.650;-0.522;2022-11-23T03:46:46;3.49;88.68
68912;SHT31;55953;51.650;-0.522;2022-11-23T03:49:16;3.53;88.78
68912;SHT31;55953;51.650;-0.522;2022-11-23T03:51:44;3.60;88.86
68912;SHT31;55953;51.650;-0.522;2022-11-23T03:54:13;3.67;88.73
68912;SHT31;55953;51.650;-0.522;2022-11-23T03:56:41;3.74;88.64
68912;SHT31;55953;51.650;-0.522;2022-11-23T03:59:08;3.83;88.53
68912;SHT31;55953;51.650;-0.522;2022-11-23T04:01:36;3.91;88.44
68912;SHT31;55953;51.650;-0.522;2022-11-23T04:04:07;3.96;88.30
68912;SHT31;55953;51.650;-0.522;2022-11-23T04:06:53;3.93;88.23
68912;SHT31;55953;51.650;-0.522;2022-11-23T04:09:25;3.94;88.36
68912;SHT31;55953;51.650;-0.522;2022-11-23T04:12:05;3.94;88.17
68912;SHT31;55953;51.650;-0.522;2022-11-23T04:14:36;3.91;88.08
68912;SHT31;55953;51.650;-0.522;2022-11-23T04:17:04;3.95;88.13
68912;SHT31;55953;51.650;-0.522;2022-11-23T04:19:32;3.92;87.81
68912;SHT31;55953;51.650;-0.522;2022-11-23T04:22:00;3.80;87.69
68912;SHT31;55953;51.650;-0.522;2022-11-23T04:24:31;3.72;87.81
68912;SHT31;55953;51.650;-0.522;2022-11-23T04:26:59;3.67;88.00
68912;SHT31;55953;51.650;-0.522;2022-11-23T04:29:27;3.68;88.13
68912;SHT31;55953;51.650;-0.522;2022-11-23T04:31:55;3.69;88.13
68912;SHT31;55953;51.650;-0.522;2022-11-23T04:34:23;3.69;88.17
68912;SHT31;55953;51.650;-0.522;2022-11-23T04:36:52;3.70;88.18
68912;SHT31;55953;51.650;-0.522;2022-11-23T04:39:25;3.71;88.14
68912;SHT31;55953;51.650;-0.522;2022-11-23T04:42:10;3.67;88.11
68912;SHT31;55953;51.650;-0.522;2022-11-23T04:44:40;3.72;88.12
68912;SHT31;55953;51.650;-0.522;2022-11-23T04:47:09;3.64;87.85
68912;SHT31;55953;51.650;-0.522;2022-11-23T04:49:38;3.56;88.17
68912;SHT31;55953;51.650;-0.522;2022-11-23T04:52:07;3.54;88.34
68912;SHT31;55953;51.650;-0.522;2022-11-23T04:54:40;3.47;88.32
68912;SHT31;55953;51.650;-0.522;2022-11-23T04:57:08;3.44;88.43
68912;SHT31;55953;51.650;-0.522;2022-11-23T04:59:37;3.40;88.56
68912;SHT31;55953;51.650;-0.522;2022-11-23T05:02:05;3.43;89.02
68912;SHT31;55953;51.650;-0.522;2022-11-23T05:04:40;3.48;89.19
68912;SHT31;55953;51.650;-0.522;2022-11-23T05:07:08;3.58;89.65
68912;SHT31;55953;51.650;-0.522;2022-11-23T05:09:37;3.74;89.93
68912;SHT31;55953;51.650;-0.522;2022-11-23T05:12:20;3.87;90.25
68912;SHT31;55953;51.650;-0.522;2022-11-23T05:14:47;4.04;90.29
68912;SHT31;55953;51.650;-0.522;2022-11-23T05:17:20;4.19;90.34
68912;SHT31;55953;51.650;-0.522;2022-11-23T05:19:48;4.34;90.46
68912;SHT31;55953;51.650;-0.522;2022-11-23T05:22:17;4.50;90.69
68912;SHT31;55953;51.650;-0.522;2022-11-23T05:24:44;4.66;90.72
68912;SHT31;55953;51.650;-0.522;2022-11-23T05:27:16;4.82;90.68
68912;SHT31;55953;51.650;-0.522;2022-11-23T05:29:44;4.97;90.60
68912;SHT31;55953;51.650;-0.522;2022-11-23T05:32:12;5.05;90.31
68912;SHT31;55953;51.650;-0.522;2022-11-23T05:34:40;5.15;90.28
68912;SHT31;55953;51.650;-0.522;2022-11-23T05:37:09;5.26;89.98
68912;SHT31;55953;51.650;-0.522;2022-11-23T05:39:44;5.35;89.70
68912;SHT31;55953;51.650;-0.522;2022-11-23T05:42:12;5.40;89.50
68912;SHT31;55953;51.650;-0.522;2022-11-23T05:44:41;5.41;89.41
68912;SHT31;55953;51.650;-0.522;2022-11-23T05:47:16;5.48;89.42
68912;SHT31;55953;51.650;-0.522;2022-11-23T05:49:43;5.55;89.55
68912;SHT31;55953;51.650;-0.522;2022-11-23T05:52:13;5.60;89.75
68912;SHT31;55953;51.650;-0.522;2022-11-23T05:54:41;5.66;89.78
68912;SHT31;55953;51.650;-0.522;2022-11-23T05:57:11;5.65;89.77
68912;SHT31;55953;51.650;-0.522;2022-11-23T05:59:40;5.63;89.73
68912;SHT31;55953;51.650;-0.522;2022-11-23T06:02:11;5.59;89.64
68912;SHT31;55953;51.650;-0.522;2022-11-23T06:04:39;5.53;89.85
68912;SHT31;55953;51.650;-0.522;2022-11-23T06:07:09;5.49;89.79
68912;SHT31;55953;51.650;-0.522;2022-11-23T06:09:57;5.48;90.09
68912;SHT31;55953;51.650;-0.522;2022-11-23T06:12:28;5.54;90.25
68912;SHT31;55953;51.650;-0.522;2022-11-23T06:14:57;5.56;90.26
68912;SHT31;55953;51.650;-0.522;2022-11-23T06:17:26;5.57;90.27
68912;SHT31;55953;51.650;-0.522;2022-11-23T06:19:59;5.60;90.35
68912;SHT31;55953;51.650;-0.522;2022-11-23T06:22:27;5.65;90.48
68912;SHT31;55953;51.650;-0.522;2022-11-23T06:24:59;5.78;90.85
68912;SHT31;55953;51.650;-0.522;2022-11-23T06:27:36;5.86;90.67
68912;SHT31;55953;51.650;-0.522;2022-11-23T06:30:10;5.96;90.76
68912;SHT31;55953;51.650;-0.522;2022-11-23T06:32:40;6.03;90.72
68912;SHT31;55953;51.650;-0.522;2022-11-23T06:35:08;6.15;90.68
68912;SHT31;55953;51.650;-0.522;2022-11-23T06:37:38;6.21;90.56
68912;SHT31;55953;51.650;-0.522;2022-11-23T06:40:06;6.26;90.59
68912;SHT31;55953;51.650;-0.522;2022-11-23T06:42:36;6.33;90.56
68912;SHT31;55953;51.650;-0.522;2022-11-23T06:45:12;6.37;90.52
68912;SHT31;55953;51.650;-0.522;2022-11-23T06:47:40;6.44;90.51
68912;SHT31;55953;51.650;-0.522;2022-11-23T06:50:08;6.52;90.49
68912;SHT31;55953;51.650;-0.522;2022-11-23T06:52:36;6.58;90.54
68912;SHT31;55953;51.650;-0.522;2022-11-23T06:55:03;6.67;90.58
68912;SHT31;55953;51.650;-0.522;2022-11-23T06:57:32;6.76;90.51
68912;SHT31;55953;51.650;-0.522;2022-11-23T07:00:00;6.82;90.67
68912;SHT31;55953;51.650;-0.522;2022-11-23T07:02:32;6.89;90.62
68912;SHT31;55953;51.650;-0.522;2022-11-23T07:05:00;6.95;90.67
68912;SHT31;55953;51.650;-0.522;2022-11-23T07:07:28;7.03;90.62
68912;SHT31;55953;51.650;-0.522;2022-11-23T07:10:05;7.11;90.70
68912;SHT31;55953;51.650;-0.522;2022-11-23T07:12:42;7.18;90.75
68912;SHT31;55953;51.650;-0.522;2022-11-23T07:15:10;7.23;90.70
68912;SHT31;55953;51.650;-0.522;2022-11-23T07:17:41;7.28;90.86
68912;SHT31;55953;51.650;-0.522;2022-11-23T07:20:12;7.33;90.89
68912;SHT31;55953;51.650;-0.522;2022-11-23T07:22:40;7.41;91.11
68912;SHT31;55953;51.650;-0.522;2022-11-23T07:25:08;7.47;91.18
68912;SHT31;55953;51.650;-0.522;2022-11-23T07:27:37;7.54;91.33
68912;SHT31;55953;51.650;-0.522;2022-11-23T07:30:06;7.62;91.41
68912;SHT31;55953;51.650;-0.522;2022-11-23T07:32:35;7.69;91.49
68912;SHT31;55953;51.650;-0.522;2022-11-23T07:35:03;7.76;91.56
68912;SHT31;55953;51.650;-0.522;2022-11-23T07:37:33;7.85;91.51
68912;SHT31;55953;51.650;-0.522;2022-11-23T07:40:01;7.91;91.48
68912;SHT31;55953;51.650;-0.522;2022-11-23T07:42:30;7.96;91.52
68912;SHT31;55953;51.650;-0.522;2022-11-23T07:45:06;8.02;91.63
68912;SHT31;55953;51.650;-0.522;2022-11-23T07:47:37;8.05;91.69
68912;SHT31;55953;51.650;-0.522;2022-11-23T07:50:07;8.13;91.72
68912;SHT31;55953;51.650;-0.522;2022-11-23T07:52:37;8.19;91.78
68912;SHT31;55953;51.650;-0.522;2022-11-23T07:55:06;8.24;91.89
68912;SHT31;55953;51.650;-0.522;2022-11-23T07:57:34;8.31;91.93
68912;SHT31;55953;51.650;-0.522;2022-11-23T08:00:03;8.36;91.83
68912;SHT31;55953;51.650;-0.522;2022-11-23T08:02:38;8.43;91.99
68912;SHT31;55953;51.650;-0.522;2022-11-23T08:05:27;8.50;92.12
68912;SHT31;55953;51.650;-0.522;2022-11-23T08:08:00;8.53;92.01
68912;SHT31;55953;51.650;-0.522;2022-11-23T08:10:29;8.60;92.27
68912;SHT31;55953;51.650;-0.522;2022-11-23T08:13:02;8.68;92.20
68912;SHT31;55953;51.650;-0.522;2022-11-23T08:15:32;8.71;92.17
68912;SHT31;55953;51.650;-0.522;2022-11-23T08:18:01;8.79;92.35
68912;SHT31;55953;51.650;-0.522;2022-11-23T08:20:30;8.84;92.21
68912;SHT31;55953;51.650;-0.522;2022-11-23T08:22:59;8.90;92.38
68912;SHT31;55953;51.650;-0.522;2022-11-23T08:25:27;8.96;92.35
68912;SHT31;55953;51.650;-0.522;2022-11-23T08:27:58;9.01;92.37
68912;SHT31;55953;51.650;-0.522;2022-11-23T08:30:30;9.05;92.29
68912;SHT31;55953;51.650;-0.522;2022-11-23T08:33:06;9.10;92.28
68912;SHT31;55953;51.650;-0.522;2022-11-23T08:35:36;9.16;92.33
68912;SHT31;55953;51.650;-0.522;2022-11-23T08:38:06;9.23;92.39
68912;SHT31;55953;51.650;-0.522;2022-11-23T08:40:36;9.26;92.28
68912;SHT31;55953;51.650;-0.522;2022-11-23T08:43:05;9.30;92.26
68912;SHT31;55953;51.650;-0.522;2022-11-23T08:45:33;9.38;92.42
68912;SHT31;55953;51.650;-0.522;2022-11-23T08:48:01;9.44;92.31
68912;SHT31;55953;51.650;-0.522;2022-11-23T08:50:31;9.44;92.32
68912;SHT31;55953;51.650;-0.522;2022-11-23T08:53:00;9.46;92.37
68912;SHT31;55953;51.650;-0.522;2022-11-23T08:55:28;9.48;92.31
68912;SHT31;55953;51.650;-0.522;2022-11-23T08:57:56;9.49;92.49
68912;SHT31;55953;51.650;-0.522;2022-11-23T09:00:25;9.52;92.39
68912;SHT31;55953;51.650;-0.522;2022-11-23T09:02:54;9.56;92.51
68912;SHT31;55953;51.650;-0.522;2022-11-23T09:05:27;9.60;92.49
68912;SHT31;55953;51.650;-0.522;2022-11-23T09:07:59;9.63;92.49
68912;SHT31;55953;51.650;-0.522;2022-11-23T09:10:27;9.68;92.49
68912;SHT31;55953;51.650;-0.522;2022-11-23T09:12:55;9.71;92.69
68912;SHT31;55953;51.650;-0.522;2022-11-23T09:15:25;9.77;93.17
68912;SHT31;55953;51.650;-0.522;2022-11-23T09:17:53;9.88;93.26
68912;SHT31;55953;51.650;-0.522;2022-11-23T09:20:20;9.94;92.89
68912;SHT31;55953;51.650;-0.522;2022-11-23T09:22:49;9.99;92.49
68912;SHT31;55953;51.650;-0.522;2022-11-23T09:25:19;10.02;92.01
68912;SHT31;55953;51.650;-0.522;2022-11-23T09:27:49;10.04;91.09
68912;SHT31;55953;51.650;-0.522;2022-11-23T09:30:26;10.05;90.51
68912;SHT31;55953;51.650;-0.522;2022-11-23T09:32:57;10.06;90.22
68912;SHT31;55953;51.650;-0.522;2022-11-23T09:35:25;10.04;90.12
68912;SHT31;55953;51.650;-0.522;2022-11-23T09:37:56;10.03;90.10
68912;SHT31;55953;51.650;-0.522;2022-11-23T09:40:32;10.01;90.16
68912;SHT31;55953;51.650;-0.522;2022-11-23T09:43:12;9.97;90.16
68912;SHT31;55953;51.650;-0.522;2022-11-23T09:46:23;9.99;90.20
68912;SHT31;55953;51.650;-0.522;2022-11-23T09:49:17;10.04;90.15
68912;SHT31;55953;51.650;-0.522;2022-11-23T09:51:48;10.07;90.17
68912;SHT31;55953;51.650;-0.522;2022-11-23T09:54:32;10.13;90.00
68912;SHT31;55953;51.650;-0.522;2022-11-23T09:57:03;10.13;89.82
68912;SHT31;55953;51.650;-0.522;2022-11-23T09:59:41;10.14;89.70
68912;SHT31;55953;51.650;-0.522;2022-11-23T10:04:51;10.11;89.55
68912;SHT31;55953;51.650;-0.522;2022-11-23T10:13:14;10.22;89.41
68912;SHT31;55953;51.650;-0.522;2022-11-23T10:18:54;10.25;88.85
68912;SHT31;55953;51.650;-0.522;2022-11-23T10:21:54;10.23;87.31
68912;SHT31;55953;51.650;-0.522;2022-11-23T10:24:38;10.21;86.97
68912;SHT31;55953;51.650;-0.522;2022-11-23T10:27:15;10.17;86.42
68912;SHT31;55953;51.650;-0.522;2022-11-23T10:29:49;10.09;86.02
68912;SHT31;55953;51.650;-0.522;2022-11-23T10:35:47;9.92;84.78
68912;SHT31;55953;51.650;-0.522;2022-11-23T10:38:18;9.88;84.11
68912;SHT31;55953;51.650;-0.522;2022-11-23T10:43:22;9.86;84.65
68912;SHT31;55953;51.650;-0.522;2022-11-23T10:49:07;9.86;84.88
68912;SHT31;55953;51.650;-0.522;2022-11-23T10:52:01;9.87;84.73
68912;SHT31;55953;51.650;-0.522;2022-11-23T10:54:34;9.85;84.93
68912;SHT31;55953;51.650;-0.522;2022-11-23T10:57:20;9.85;84.93
68912;SHT31;55953;51.650;-0.522;2022-11-23T11:00:03;9.89;84.78
68912;SHT31;55953;51.650;-0.522;2022-11-23T11:02:44;9.91;84.68
68912;SHT31;55953;51.650;-0.522;2022-11-23T11:08:26;10.06;84.24
68912;SHT31;55953;51.650;-0.522;2022-11-23T11:14:08;10.27;83.86
68912;SHT31;55953;51.650;-0.522;2022-11-23T11:16:47;10.35;84.14
68912;SHT31;55953;51.650;-0.522;2022-11-23T11:19:20;10.38;83.44
68912;SHT31;55953;51.650;-0.522;2022-11-23T11:21:59;10.36;83.14
68912;SHT31;55953;51.650;-0.522;2022-11-23T11:24:49;10.38;83.33
68912;SHT31;55953;51.650;-0.522;2022-11-23T11:27:21;10.39;83.34
68912;SHT31;55953;51.650;-0.522;2022-11-23T11:29:55;10.45;83.30
68912;SHT31;55953;51.650;-0.522;2022-11-23T11:35:26;10.52;83.71
68912;SHT31;55953;51.650;-0.522;2022-11-23T11:38:15;10.52;82.36
68912;SHT31;55953;51.650;-0.522;2022-11-23T11:40:54;10.54;82.49
68912;SHT31;55953;51.650;-0.522;2022-11-23T11:43:31;10.55;82.60
68912;SHT31;55953;51.650;-0.522;2022-11-23T11:49:08;10.59;81.89
68912;SHT31;55953;51.650;-0.522;2022-11-23T11:51:46;10.67;81.73
68912;SHT31;55953;51.650;-0.522;2022-11-23T11:54:34;10.71;81.38
68912;SHT31;55953;51.650;-0.522;2022-11-23T11:57:15;10.77;81.67
68912;SHT31;55953;51.650;-0.522;2022-11-23T11:59:55;10.82;81.60
68912;SHT31;55953;51.650;-0.522;2022-11-23T12:05:21;10.88;80.58
68912;SHT31;55953;51.650;-0.522;2022-11-23T12:10:48;10.86;80.22
68912;SHT31;55953;51.650;-0.522;2022-11-23T12:13:32;10.88;80.24
68912;SHT31;55953;51.650;-0.522;2022-11-23T12:21:40;10.89;80.44
68912;SHT31;55953;51.650;-0.522;2022-11-23T12:31:02;10.89;79.94
68912;SHT31;55953;51.650;-0.522;2022-11-23T12:36:58;10.97;78.88
68912;SHT31;55953;51.650;-0.522;2022-11-23T12:42:43;11.06;79.29
68912;SHT31;55953;51.650;-0.522;2022-11-23T12:59:42;11.16;79.15
68912;SHT31;55953;51.650;-0.522;2022-11-23T13:14:10;11.07;77.15
68912;SHT31;55953;51.650;-0.522;2022-11-23T13:16:58;11.04;76.79
68912;SHT31;55953;51.650;-0.522;2022-11-23T13:22:41;11.09;77.12
68912;SHT31;55953;51.650;-0.522;2022-11-23T13:27:43;11.13;76.32
68912;SHT31;55953;51.650;-0.522;2022-11-23T13:33:23;11.12;76.13
68912;SHT31;55953;51.650;-0.522;2022-11-23T13:36:02;11.10;76.38
68912;SHT31;55953;51.650;-0.522;2022-11-23T13:38:40;11.09;76.26
68912;SHT31;55953;51.650;-0.522;2022-11-23T13:44:40;11.15;75.19
68912;SHT31;55953;51.650;-0.522;2022-11-23T13:49:42;11.16;75.62
68912;SHT31;55953;51.650;-0.522;2022-11-23T13:57:41;11.19;74.88
68912;SHT31;55953;51.650;-0.522;2022-11-23T14:06:36;11.22;74.59
68912;SHT31;55953;51.650;-0.522;2022-11-23T14:12:07;11.23;73.81
68912;SHT31;55953;51.650;-0.522;2022-11-23T14:24:02;10.92;74.12
68912;SHT31;55953;51.650;-0.522;2022-11-23T14:26:54;10.88;74.40
68912;SHT31;55953;51.650;-0.522;2022-11-23T14:35:44;10.93;74.19
68912;SHT31;55953;51.650;-0.522;2022-11-23T14:41:22;10.88;74.27
68912;SHT31;55953;51.650;-0.522;2022-11-23T14:43:54;10.86;74.01
68912;SHT31;55953;51.650;-0.522;2022-11-23T14:46:23;10.86;74.21
68912;SHT31;55953;51.650;-0.522;2022-11-23T14:49:01;10.87;74.68
68912;SHT31;55953;51.650;-0.522;2022-11-23T14:51:33;10.87;74.97
68912;SHT31;55953;51.650;-0.522;2022-11-23T14:54:07;10.87;75.05
68912;SHT31;55953;51.650;-0.522;2022-11-23T14:56:40;10.89;75.65
68912;SHT31;55953;51.650;-0.522;2022-11-23T14:59:22;10.92;74.89
68912;SHT31;55953;51.650;-0.522;2022-11-23T15:01:58;10.96;74.65
68912;SHT31;55953;51.650;-0.522;2022-11-23T15:04:30;11.04;74.70
68912;SHT31;55953;51.650;-0.522;2022-11-23T15:09:48;11.06;75.10
68912;SHT31;55953;51.650;-0.522;2022-11-23T15:12:27;10.95;75.08
68912;SHT31;55953;51.650;-0.522;2022-11-23T15:15:16;10.83;74.85
68912;SHT31;55953;51.650;-0.522;2022-11-23T15:17:57;10.70;74.15
68912;SHT31;55953;51.650;-0.522;2022-11-23T15:20:30;10.53;73.24
68912;SHT31;55953;51.650;-0.522;2022-11-23T15:23:00;10.42;73.11
68912;SHT31;55953;51.650;-0.522;2022-11-23T15:25:30;10.33;73.62
68912;SHT31;55953;51.650;-0.522;2022-11-23T15:27:58;10.25;73.77
68912;SHT31;55953;51.650;-0.522;2022-11-23T15:30:27;10.17;74.38
68912;SHT31;55953;51.650;-0.522;2022-11-23T15:32:57;10.08;74.79
68912;SHT31;55953;51.650;-0.522;2022-11-23T15:35:36;9.98;74.88
68912;SHT31;55953;51.650;-0.522;2022-11-23T15:38:10;9.88;75.26
68912;SHT31;55953;51.650;-0.522;2022-11-23T15:40:48;9.77;75.56
68912;SHT31;55953;51.650;-0.522;2022-11-23T15:43:17;9.68;75.74
68912;SHT31;55953;51.650;-0.522;2022-11-23T15:48:15;9.55;75.97
68912;SHT31;55953;51.650;-0.522;2022-11-23T15:50:51;9.49;76.11
68912;SHT31;55953;51.650;-0.522;2022-11-23T15:53:26;9.44;76.47
68912;SHT31;55953;51.650;-0.522;2022-11-23T15:55:59;9.36;76.94
68912;SHT31;55953;51.650;-0.522;2022-11-23T15:58:31;9.25;77.21
68912;SHT31;55953;51.650;-0.522;2022-11-23T16:01:05;9.19;77.40
68912;SHT31;55953;51.650;-0.522;2022-11-23T16:03:56;9.13;77.66
68912;SHT31;55953;51.650;-0.522;2022-11-23T16:06:34;9.06;77.98
68912;SHT31;55953;51.650;-0.522;2022-11-23T16:09:03;9.01;78.14
68912;SHT31;55953;51.650;-0.522;2022-11-23T16:12:45;8.96;78.64
68912;SHT31;55953;51.650;-0.522;2022-11-23T16:17:53;8.84;79.35
68912;SHT31;55953;51.650;-0.522;2022-11-23T16:20:22;8.84;79.48
68912;SHT31;55953;51.650;-0.522;2022-11-23T16:22:51;8.87;79.42
68912;SHT31;55953;51.650;-0.522;2022-11-23T16:25:25;8.90;79.40
68912;SHT31;55953;51.650;-0.522;2022-11-23T16:28:04;8.92;79.55
68912;SHT31;55953;51.650;-0.522;2022-11-23T16:30:45;8.88;79.81
68912;SHT31;55953;51.650;-0.522;2022-11-23T16:33:14;8.84;79.88
68912;SHT31;55953;51.650;-0.522;2022-11-23T16:35:45;8.81;80.10
68912;SHT31;55953;51.650;-0.522;2022-11-23T16:38:21;8.78;80.30
68912;SHT31;55953;51.650;-0.522;2022-11-23T16:40:49;8.75;80.56
68912;SHT31;55953;51.650;-0.522;2022-11-23T16:43:17;8.72;80.76
68912;SHT31;55953;51.650;-0.522;2022-11-23T16:45:46;8.65;80.84
68912;SHT31;55953;51.650;-0.522;2022-11-23T16:50:52;8.55;81.06
68912;SHT31;55953;51.650;-0.522;2022-11-23T16:53:22;8.47;81.33
68912;SHT31;55953;51.650;-0.522;2022-11-23T16:55:56;8.43;81.54
68912;SHT31;55953;51.650;-0.522;2022-11-23T16:58:28;8.39;81.62
68912;SHT31;55953;51.650;-0.522;2022-11-23T17:01:01;8.32;81.81
68912;SHT31;55953;51.650;-0.522;2022-11-23T17:03:29;8.23;81.97
68912;SHT31;55953;51.650;-0.522;2022-11-23T17:05:57;8.18;82.19
68912;SHT31;55953;51.650;-0.522;2022-11-23T17:08:24;8.14;82.26
68912;SHT31;55953;51.650;-0.522;2022-11-23T17:10:52;8.09;82.34
68912;SHT31;55953;51.650;-0.522;2022-11-23T17:13:21;8.03;82.46
68912;SHT31;55953;51.650;-0.522;2022-11-23T17:15:53;7.97;82.64
68912;SHT31;55953;51.650;-0.522;2022-11-23T17:18:22;7.94;82.81
68912;SHT31;55953;51.650;-0.522;2022-11-23T17:20:49;7.92;82.90
68912;SHT31;55953;51.650;-0.522;2022-11-23T17:23:17;7.86;82.98
68912;SHT31;55953;51.650;-0.522;2022-11-23T17:25:45;7.84;83.16
68912;SHT31;55953;51.650;-0.522;2022-11-23T17:28:14;7.84;83.30
68912;SHT31;55953;51.650;-0.522;2022-11-23T17:30:48;7.79;83.30
68912;SHT31;55953;51.650;-0.522;2022-11-23T17:33:16;7.74;83.40
68912;SHT31;55953;51.650;-0.522;2022-11-23T17:35:44;7.69;83.48
68912;SHT31;55953;51.650;-0.522;2022-11-23T17:38:15;7.65;83.72
68912;SHT31;55953;51.650;-0.522;2022-11-23T17:40:48;7.61;83.94
68912;SHT31;55953;51.650;-0.522;2022-11-23T17:43:16;7.63;84.06
68912;SHT31;55953;51.650;-0.522;2022-11-23T17:45:45;7.62;84.00
68912;SHT31;55953;51.650;-0.522;2022-11-23T17:48:14;7.52;84.03
68912;SHT31;55953;51.650;-0.522;2022-11-23T17:50:43;7.47;84.48
68912;SHT31;55953;51.650;-0.522;2022-11-23T17:53:10;7.43;85.02
68912;SHT31;55953;51.650;-0.522;2022-11-23T17:55:38;7.41;85.08
68912;SHT31;55953;51.650;-0.522;2022-11-23T17:58:06;7.43;85.31
68912;SHT31;55953;51.650;-0.522;2022-11-23T18:00:35;7.48;85.30
68912;SHT31;55953;51.650;-0.522;2022-11-23T18:03:05;7.57;85.61
68912;SHT31;55953;51.650;-0.522;2022-11-23T18:05:33;7.68;85.31
68912;SHT31;55953;51.650;-0.522;2022-11-23T18:08:01;7.74;85.02
68912;SHT31;55953;51.650;-0.522;2022-11-23T18:10:28;7.79;84.89
68912;SHT31;55953;51.650;-0.522;2022-11-23T18:12:56;7.83;84.73
68912;SHT31;55953;51.650;-0.522;2022-11-23T18:15:24;7.85;84.68
68912;SHT31;55953;51.650;-0.522;2022-11-23T18:17:52;7.88;84.61
68912;SHT31;55953;51.650;-0.522;2022-11-23T18:20:20;7.92;84.64
68912;SHT31;55953;51.650;-0.522;2022-11-23T18:22:48;7.95;84.68
68912;SHT31;55953;51.650;-0.522;2022-11-23T18:25:16;7.95;84.71
68912;SHT31;55953;51.650;-0.522;2022-11-23T18:27:44;7.96;84.70
68912;SHT31;55953;51.650;-0.522;2022-11-23T18:30:13;7.94;84.68
68912;SHT31;55953;51.650;-0.522;2022-11-23T18:32:43;7.91;84.74